Terminal Aerodrome Forecast
Issued by NWS

Home | Current Version | Previous Version | Text Only | Print | Product List | Glossary On
Versions: 1 2 3 4 5 6 7 8 9 10 11 12 13 14 15 16 17 18 19 20 21
000
FTUS41 KOKX 310830 AAA
TAFSWF
TAF AMD
KSWF 310830Z 3109/0112 VRB04KT P6SM FEW050 BKN250
     FM311200 27006KT P6SM FEW050 BKN250
     FM311700 28010KT P6SM SCT050 BKN250
     FM312300 28006KT P6SM SCT050 SCT250
     FM010200 VRB04KT P6SM FEW050
      AMD NOT SKED=

USA.gov is the U.S. government's official web portal to all federal, state and local government web resources and services.